sensor_id;sensor_type;location;lat;lon;timestamp;P1;durP1;ratioP1;P2;durP2;ratioP2
48516;SDS011;34310;51.904;4.256;2023-08-21T00:00:10;4.40;;;3.60;;
48516;SDS011;34310;51.904;4.256;2023-08-21T00:02:37;4.82;;;4.00;;
48516;SDS011;34310;51.904;4.256;2023-08-21T00:05:04;4.72;;;3.60;;
48516;SDS011;34310;51.904;4.256;2023-08-21T00:07:30;4.35;;;3.58;;
48516;SDS011;34310;51.904;4.256;2023-08-21T00:09:57;4.80;;;3.42;;
48516;SDS011;34310;51.904;4.256;2023-08-21T00:12:23;4.50;;;3.35;;
48516;SDS011;34310;51.904;4.256;2023-08-21T00:14:50;4.07;;;3.42;;
48516;SDS011;34310;51.904;4.256;2023-08-21T00:17:16;3.85;;;3.10;;
48516;SDS011;34310;51.904;4.256;2023-08-21T00:19:43;4.28;;;3.40;;
48516;SDS011;34310;51.904;4.256;2023-08-21T00:22:09;4.03;;;3.33;;
48516;SDS011;34310;51.904;4.256;2023-08-21T00:24:35;4.32;;;3.65;;
48516;SDS011;34310;51.904;4.256;2023-08-21T00:27:02;4.25;;;3.15;;
48516;SDS011;34310;51.904;4.256;2023-08-21T00:29:28;4.20;;;3.08;;
48516;SDS011;34310;51.904;4.256;2023-08-21T00:31:55;3.88;;;2.80;;
48516;SDS011;34310;51.904;4.256;2023-08-21T00:34:21;3.75;;;3.10;;
48516;SDS011;34310;51.904;4.256;2023-08-21T00:36:48;3.92;;;3.10;;
48516;SDS011;34310;51.904;4.256;2023-08-21T00:39:14;4.20;;;2.80;;
48516;SDS011;34310;51.904;4.256;2023-08-21T00:41:41;3.60;;;2.88;;
48516;SDS011;34310;51.904;4.256;2023-08-21T00:44:07;5.07;;;3.20;;
48516;SDS011;34310;51.904;4.256;2023-08-21T00:46:34;4.15;;;3.25;;
48516;SDS011;34310;51.904;4.256;2023-08-21T00:49:01;4.50;;;3.30;;
48516;SDS011;34310;51.904;4.256;2023-08-21T00:51:27;4.50;;;2.67;;
48516;SDS011;34310;51.904;4.256;2023-08-21T00:53:54;3.97;;;2.70;;
48516;SDS011;34310;51.904;4.256;2023-08-21T00:56:21;3.50;;;2.70;;
48516;SDS011;34310;51.904;4.256;2023-08-21T00:58:48;3.28;;;2.75;;
48516;SDS011;34310;51.904;4.256;2023-08-21T01:01:15;3.63;;;2.80;;
48516;SDS011;34310;51.904;4.256;2023-08-21T01:03:44;3.03;;;2.30;;
48516;SDS011;34310;51.904;4.256;2023-08-21T01:06:10;3.90;;;2.80;;
48516;SDS011;34310;51.904;4.256;2023-08-21T01:11:26;3.40;;;2.63;;
48516;SDS011;34310;51.904;4.256;2023-08-21T01:14:17;3.60;;;2.40;;
48516;SDS011;34310;51.904;4.256;2023-08-21T01:17:00;3.67;;;2.33;;
48516;SDS011;34310;51.904;4.256;2023-08-21T01:19:31;3.47;;;2.60;;
48516;SDS011;34310;51.904;4.256;2023-08-21T01:22:02;3.72;;;2.60;;
48516;SDS011;34310;51.904;4.256;2023-08-21T01:24:30;4.13;;;2.63;;
48516;SDS011;34310;51.904;4.256;2023-08-21T01:26:56;2.95;;;2.35;;
48516;SDS011;34310;51.904;4.256;2023-08-21T01:29:23;2.58;;;2.22;;
48516;SDS011;34310;51.904;4.256;2023-08-21T01:31:55;3.13;;;2.47;;
48516;SDS011;34310;51.904;4.256;2023-08-21T01:34:28;3.03;;;2.30;;
48516;SDS011;34310;51.904;4.256;2023-08-21T01:36:56;4.45;;;2.40;;
48516;SDS011;34310;51.904;4.256;2023-08-21T01:39:23;3.58;;;2.50;;
48516;SDS011;34310;51.904;4.256;2023-08-21T01:41:49;5.78;;;2.10;;
48516;SDS011;34310;51.904;4.256;2023-08-21T01:44:16;2.97;;;2.38;;
48516;SDS011;34310;51.904;4.256;2023-08-21T01:46:43;2.38;;;2.05;;
48516;SDS011;34310;51.904;4.256;2023-08-21T01:49:09;3.25;;;2.10;;
48516;SDS011;34310;51.904;4.256;2023-08-21T01:51:35;3.53;;;2.25;;
48516;SDS011;34310;51.904;4.256;2023-08-21T01:54:02;3.42;;;2.20;;
48516;SDS011;34310;51.904;4.256;2023-08-21T01:56:29;2.47;;;2.03;;
48516;SDS011;34310;51.904;4.256;2023-08-21T01:58:55;3.08;;;2.00;;
48516;SDS011;34310;51.904;4.256;2023-08-21T02:01:22;2.85;;;1.88;;
48516;SDS011;34310;51.904;4.256;2023-08-21T02:03:48;2.42;;;1.90;;
48516;SDS011;34310;51.904;4.256;2023-08-21T02:06:15;3.30;;;2.17;;
48516;SDS011;34310;51.904;4.256;2023-08-21T02:08:41;4.05;;;2.10;;
48516;SDS011;34310;51.904;4.256;2023-08-21T02:11:08;2.78;;;1.85;;
48516;SDS011;34310;51.904;4.256;2023-08-21T02:13:34;3.67;;;2.22;;
48516;SDS011;34310;51.904;4.256;2023-08-21T02:16:01;1.88;;;1.70;;
48516;SDS011;34310;51.904;4.256;2023-08-21T02:18:27;2.88;;;2.08;;
48516;SDS011;34310;51.904;4.256;2023-08-21T02:20:54;3.30;;;2.00;;
48516;SDS011;34310;51.904;4.256;2023-08-21T02:23:20;2.75;;;1.80;;
48516;SDS011;34310;51.904;4.256;2023-08-21T02:25:47;2.15;;;1.80;;
48516;SDS011;34310;51.904;4.256;2023-08-21T02:28:13;2.78;;;1.90;;
48516;SDS011;34310;51.904;4.256;2023-08-21T02:30:40;2.80;;;1.70;;
48516;SDS011;34310;51.904;4.256;2023-08-21T02:33:08;1.95;;;1.60;;
48516;SDS011;34310;51.904;4.256;2023-08-21T02:35:34;2.33;;;1.60;;
48516;SDS011;34310;51.904;4.256;2023-08-21T02:38:01;2.33;;;1.63;;
48516;SDS011;34310;51.904;4.256;2023-08-21T02:40:28;4.15;;;1.80;;
48516;SDS011;34310;51.904;4.256;2023-08-21T02:42:54;3.17;;;1.70;;
48516;SDS011;34310;51.904;4.256;2023-08-21T02:45:21;2.17;;;1.65;;
48516;SDS011;34310;51.904;4.256;2023-08-21T02:47:47;2.38;;;1.60;;
48516;SDS011;34310;51.904;4.256;2023-08-21T02:50:14;3.00;;;1.65;;
48516;SDS011;34310;51.904;4.256;2023-08-21T02:52:40;2.17;;;1.60;;
48516;SDS011;34310;51.904;4.256;2023-08-21T02:55:07;4.18;;;1.70;;
48516;SDS011;34310;51.904;4.256;2023-08-21T02:57:34;2.72;;;1.52;;
48516;SDS011;34310;51.904;4.256;2023-08-21T03:00:00;2.42;;;1.60;;
48516;SDS011;34310;51.904;4.256;2023-08-21T03:02:27;3.28;;;1.83;;
48516;SDS011;34310;51.904;4.256;2023-08-21T03:04:53;2.63;;;1.80;;
48516;SDS011;34310;51.904;4.256;2023-08-21T03:07:20;2.58;;;1.80;;
48516;SDS011;34310;51.904;4.256;2023-08-21T03:09:46;2.35;;;1.67;;
48516;SDS011;34310;51.904;4.256;2023-08-21T03:12:13;2.22;;;1.55;;
48516;SDS011;34310;51.904;4.256;2023-08-21T03:14:40;2.78;;;1.60;;
48516;SDS011;34310;51.904;4.256;2023-08-21T03:17:07;2.75;;;1.70;;
48516;SDS011;34310;51.904;4.256;2023-08-21T03:19:33;3.25;;;1.70;;
48516;SDS011;34310;51.904;4.256;2023-08-21T03:22:00;2.92;;;2.00;;
48516;SDS011;34310;51.904;4.256;2023-08-21T03:24:27;3.42;;;1.80;;
48516;SDS011;34310;51.904;4.256;2023-08-21T03:26:53;3.35;;;1.65;;
48516;SDS011;34310;51.904;4.256;2023-08-21T03:29:20;2.03;;;1.50;;
48516;SDS011;34310;51.904;4.256;2023-08-21T03:31:48;2.35;;;1.38;;
48516;SDS011;34310;51.904;4.256;2023-08-21T03:34:16;3.40;;;1.65;;
48516;SDS011;34310;51.904;4.256;2023-08-21T03:36:42;2.67;;;1.77;;
48516;SDS011;34310;51.904;4.256;2023-08-21T03:39:09;2.80;;;1.50;;
48516;SDS011;34310;51.904;4.256;2023-08-21T03:41:35;2.22;;;1.38;;
48516;SDS011;34310;51.904;4.256;2023-08-21T03:44:02;3.38;;;1.50;;
48516;SDS011;34310;51.904;4.256;2023-08-21T03:46:28;1.92;;;1.30;;
48516;SDS011;34310;51.904;4.256;2023-08-21T03:48:55;2.45;;;1.30;;
48516;SDS011;34310;51.904;4.256;2023-08-21T03:51:21;2.38;;;1.40;;
48516;SDS011;34310;51.904;4.256;2023-08-21T03:53:49;2.28;;;1.52;;
48516;SDS011;34310;51.904;4.256;2023-08-21T03:56:15;2.90;;;1.50;;
48516;SDS011;34310;51.904;4.256;2023-08-21T03:58:42;3.35;;;1.65;;
48516;SDS011;34310;51.904;4.256;2023-08-21T04:01:08;2.22;;;1.30;;
48516;SDS011;34310;51.904;4.256;2023-08-21T04:03:35;3.65;;;1.30;;
48516;SDS011;34310;51.904;4.256;2023-08-21T04:06:01;1.65;;;1.40;;
48516;SDS011;34310;51.904;4.256;2023-08-21T04:08:28;1.98;;;1.33;;
48516;SDS011;34310;51.904;4.256;2023-08-21T04:10:54;2.08;;;1.02;;
48516;SDS011;34310;51.904;4.256;2023-08-21T04:13:21;1.98;;;1.13;;
48516;SDS011;34310;51.904;4.256;2023-08-21T04:15:48;2.47;;;1.20;;
48516;SDS011;34310;51.904;4.256;2023-08-21T04:18:15;2.20;;;1.10;;
48516;SDS011;34310;51.904;4.256;2023-08-21T04:20:55;2.35;;;1.30;;
48516;SDS011;34310;51.904;4.256;2023-08-21T04:23:22;2.08;;;1.20;;
48516;SDS011;34310;51.904;4.256;2023-08-21T04:25:48;2.55;;;1.23;;
48516;SDS011;34310;51.904;4.256;2023-08-21T04:28:15;2.47;;;1.17;;
48516;SDS011;34310;51.904;4.256;2023-08-21T04:30:41;1.58;;;1.15;;
48516;SDS011;34310;51.904;4.256;2023-08-21T04:33:08;1.55;;;1.00;;
48516;SDS011;34310;51.904;4.256;2023-08-21T04:35:38;2.08;;;1.10;;
48516;SDS011;34310;51.904;4.256;2023-08-21T04:38:05;1.92;;;1.05;;
48516;SDS011;34310;51.904;4.256;2023-08-21T04:40:31;2.45;;;1.30;;
48516;SDS011;34310;51.904;4.256;2023-08-21T04:42:58;2.45;;;1.20;;
48516;SDS011;34310;51.904;4.256;2023-08-21T04:45:24;1.40;;;0.90;;
48516;SDS011;34310;51.904;4.256;2023-08-21T04:47:51;1.50;;;1.05;;
48516;SDS011;34310;51.904;4.256;2023-08-21T04:50:17;2.00;;;1.15;;
48516;SDS011;34310;51.904;4.256;2023-08-21T04:52:44;2.30;;;1.10;;
48516;SDS011;34310;51.904;4.256;2023-08-21T04:55:10;2.90;;;1.30;;
48516;SDS011;34310;51.904;4.256;2023-08-21T04:57:37;5.00;;;1.30;;
48516;SDS011;34310;51.904;4.256;2023-08-21T05:00:03;1.83;;;0.93;;
48516;SDS011;34310;51.904;4.256;2023-08-21T05:02:30;1.88;;;1.20;;
48516;SDS011;34310;51.904;4.256;2023-08-21T05:04:56;2.25;;;1.20;;
48516;SDS011;34310;51.904;4.256;2023-08-21T05:07:23;2.42;;;1.05;;
48516;SDS011;34310;51.904;4.256;2023-08-21T05:09:49;2.45;;;1.10;;
48516;SDS011;34310;51.904;4.256;2023-08-21T05:12:16;1.80;;;1.17;;
48516;SDS011;34310;51.904;4.256;2023-08-21T05:14:42;2.20;;;1.20;;
48516;SDS011;34310;51.904;4.256;2023-08-21T05:17:09;1.58;;;0.93;;
48516;SDS011;34310;51.904;4.256;2023-08-21T05:19:35;1.17;;;0.90;;
48516;SDS011;34310;51.904;4.256;2023-08-21T05:22:02;2.08;;;1.00;;
48516;SDS011;34310;51.904;4.256;2023-08-21T05:24:28;2.78;;;1.27;;
48516;SDS011;34310;51.904;4.256;2023-08-21T05:26:55;1.88;;;1.15;;
48516;SDS011;34310;51.904;4.256;2023-08-21T05:29:24;1.95;;;1.25;;
48516;SDS011;34310;51.904;4.256;2023-08-21T05:31:50;2.20;;;1.00;;
48516;SDS011;34310;51.904;4.256;2023-08-21T05:34:17;1.65;;;1.00;;
48516;SDS011;34310;51.904;4.256;2023-08-21T05:36:43;2.30;;;1.05;;
48516;SDS011;34310;51.904;4.256;2023-08-21T05:39:10;1.88;;;0.95;;
48516;SDS011;34310;51.904;4.256;2023-08-21T05:41:36;2.58;;;1.13;;
48516;SDS011;34310;51.904;4.256;2023-08-21T05:44:03;1.50;;;1.05;;
48516;SDS011;34310;51.904;4.256;2023-08-21T05:46:30;2.55;;;1.00;;
48516;SDS011;34310;51.904;4.256;2023-08-21T05:48:56;1.85;;;0.90;;
48516;SDS011;34310;51.904;4.256;2023-08-21T05:51:23;2.47;;;1.25;;
48516;SDS011;34310;51.904;4.256;2023-08-21T05:53:49;2.53;;;1.02;;
48516;SDS011;34310;51.904;4.256;2023-08-21T05:56:16;1.77;;;1.00;;
48516;SDS011;34310;51.904;4.256;2023-08-21T05:58:42;2.85;;;1.00;;
48516;SDS011;34310;51.904;4.256;2023-08-21T06:01:09;2.85;;;1.20;;
48516;SDS011;34310;51.904;4.256;2023-08-21T06:03:35;1.55;;;0.80;;
48516;SDS011;34310;51.904;4.256;2023-08-21T06:06:02;1.45;;;0.85;;
48516;SDS011;34310;51.904;4.256;2023-08-21T06:08:28;2.95;;;1.10;;
48516;SDS011;34310;51.904;4.256;2023-08-21T06:10:55;1.67;;;1.00;;
48516;SDS011;34310;51.904;4.256;2023-08-21T06:13:21;2.88;;;1.00;;
48516;SDS011;34310;51.904;4.256;2023-08-21T06:15:48;2.75;;;0.90;;
48516;SDS011;34310;51.904;4.256;2023-08-21T06:18:15;1.55;;;1.10;;
48516;SDS011;34310;51.904;4.256;2023-08-21T06:20:42;1.98;;;1.13;;
48516;SDS011;34310;51.904;4.256;2023-08-21T06:23:08;2.30;;;1.13;;
48516;SDS011;34310;51.904;4.256;2023-08-21T06:25:35;1.77;;;1.10;;
48516;SDS011;34310;51.904;4.256;2023-08-21T06:28:02;1.80;;;0.98;;
48516;SDS011;34310;51.904;4.256;2023-08-21T06:30:28;1.85;;;0.85;;
48516;SDS011;34310;51.904;4.256;2023-08-21T06:32:55;1.20;;;0.88;;
48516;SDS011;34310;51.904;4.256;2023-08-21T06:35:22;2.05;;;1.10;;
48516;SDS011;34310;51.904;4.256;2023-08-21T06:37:48;1.00;;;0.90;;
48516;SDS011;34310;51.904;4.256;2023-08-21T06:40:15;1.42;;;0.90;;
48516;SDS011;34310;51.904;4.256;2023-08-21T06:42:41;1.20;;;0.68;;
48516;SDS011;34310;51.904;4.256;2023-08-21T06:45:08;1.85;;;1.08;;
48516;SDS011;34310;51.904;4.256;2023-08-21T06:47:34;2.30;;;1.00;;
48516;SDS011;34310;51.904;4.256;2023-08-21T06:50:01;2.08;;;1.27;;
48516;SDS011;34310;51.904;4.256;2023-08-21T06:52:27;1.75;;;0.80;;
48516;SDS011;34310;51.904;4.256;2023-08-21T06:54:54;1.30;;;1.10;;
48516;SDS011;34310;51.904;4.256;2023-08-21T06:57:20;1.65;;;0.80;;
48516;SDS011;34310;51.904;4.256;2023-08-21T06:59:47;1.38;;;0.95;;
48516;SDS011;34310;51.904;4.256;2023-08-21T07:02:13;1.58;;;1.00;;
48516;SDS011;34310;51.904;4.256;2023-08-21T07:04:40;2.25;;;0.90;;
48516;SDS011;34310;51.904;4.256;2023-08-21T07:07:06;2.20;;;1.10;;
48516;SDS011;34310;51.904;4.256;2023-08-21T07:09:33;1.83;;;1.00;;
48516;SDS011;34310;51.904;4.256;2023-08-21T07:11:59;1.52;;;0.80;;
48516;SDS011;34310;51.904;4.256;2023-08-21T07:14:26;1.65;;;0.85;;
48516;SDS011;34310;51.904;4.256;2023-08-21T07:16:52;2.00;;;0.90;;
48516;SDS011;34310;51.904;4.256;2023-08-21T07:19:19;2.20;;;1.08;;
48516;SDS011;34310;51.904;4.256;2023-08-21T07:21:45;2.67;;;1.17;;
48516;SDS011;34310;51.904;4.256;2023-08-21T07:24:12;1.58;;;0.98;;
48516;SDS011;34310;51.904;4.256;2023-08-21T07:26:38;1.95;;;0.98;;
48516;SDS011;34310;51.904;4.256;2023-08-21T07:29:05;1.63;;;0.90;;
48516;SDS011;34310;51.904;4.256;2023-08-21T07:31:34;2.20;;;0.77;;
48516;SDS011;34310;51.904;4.256;2023-08-21T07:34:00;1.90;;;1.10;;
48516;SDS011;34310;51.904;4.256;2023-08-21T07:36:27;1.45;;;0.90;;
48516;SDS011;34310;51.904;4.256;2023-08-21T07:38:53;1.77;;;0.90;;
48516;SDS011;34310;51.904;4.256;2023-08-21T07:41:20;2.20;;;1.00;;
48516;SDS011;34310;51.904;4.256;2023-08-21T07:43:46;1.00;;;0.80;;
48516;SDS011;34310;51.904;4.256;2023-08-21T07:46:13;2.63;;;0.90;;
48516;SDS011;34310;51.904;4.256;2023-08-21T07:48:40;1.67;;;0.82;;
48516;SDS011;34310;51.904;4.256;2023-08-21T07:51:06;0.75;;;0.75;;
48516;SDS011;34310;51.904;4.256;2023-08-21T07:53:33;2.13;;;1.08;;
48516;SDS011;34310;51.904;4.256;2023-08-21T07:55:59;1.75;;;1.00;;
48516;SDS011;34310;51.904;4.256;2023-08-21T07:58:27;1.20;;;0.90;;
48516;SDS011;34310;51.904;4.256;2023-08-21T08:00:53;1.58;;;0.82;;
48516;SDS011;34310;51.904;4.256;2023-08-21T08:03:20;3.70;;;1.10;;
48516;SDS011;34310;51.904;4.256;2023-08-21T08:05:46;1.98;;;1.00;;
48516;SDS011;34310;51.904;4.256;2023-08-21T08:08:20;2.17;;;1.10;;
48516;SDS011;34310;51.904;4.256;2023-08-21T08:10:47;0.82;;;0.70;;
48516;SDS011;34310;51.904;4.256;2023-08-21T08:13:13;1.40;;;0.85;;
48516;SDS011;34310;51.904;4.256;2023-08-21T08:15:40;0.80;;;0.77;;
48516;SDS011;34310;51.904;4.256;2023-08-21T08:18:10;1.80;;;0.90;;
48516;SDS011;34310;51.904;4.256;2023-08-21T08:20:37;2.05;;;0.90;;
48516;SDS011;34310;51.904;4.256;2023-08-21T08:23:04;3.17;;;1.00;;
48516;SDS011;34310;51.904;4.256;2023-08-21T08:25:31;7.78;;;1.65;;
48516;SDS011;34310;51.904;4.256;2023-08-21T08:27:57;6.22;;;1.50;;
48516;SDS011;34310;51.904;4.256;2023-08-21T08:30:24;5.72;;;1.70;;
48516;SDS011;34310;51.904;4.256;2023-08-21T08:32:50;6.93;;;1.73;;
48516;SDS011;34310;51.904;4.256;2023-08-21T08:35:17;8.23;;;1.58;;
48516;SDS011;34310;51.904;4.256;2023-08-21T08:37:43;11.50;;;2.60;;
48516;SDS011;34310;51.904;4.256;2023-08-21T08:40:10;6.72;;;3.05;;
48516;SDS011;34310;51.904;4.256;2023-08-21T08:42:37;6.05;;;2.63;;
48516;SDS011;34310;51.904;4.256;2023-08-21T08:45:05;8.05;;;2.65;;
48516;SDS011;34310;51.904;4.256;2023-08-21T08:47:32;5.28;;;2.40;;
48516;SDS011;34310;51.904;4.256;2023-08-21T08:50:03;5.60;;;2.20;;
48516;SDS011;34310;51.904;4.256;2023-08-21T08:52:34;7.13;;;2.20;;
48516;SDS011;34310;51.904;4.256;2023-08-21T08:55:02;5.82;;;1.80;;
48516;SDS011;34310;51.904;4.256;2023-08-21T08:57:29;6.78;;;1.80;;
48516;SDS011;34310;51.904;4.256;2023-08-21T08:59:56;6.75;;;1.90;;
48516;SDS011;34310;51.904;4.256;2023-08-21T09:02:24;5.82;;;2.20;;
48516;SDS011;34310;51.904;4.256;2023-08-21T09:04:51;6.55;;;2.13;;
48516;SDS011;34310;51.904;4.256;2023-08-21T09:07:17;4.55;;;1.55;;
48516;SDS011;34310;51.904;4.256;2023-08-21T09:09:47;2.85;;;1.42;;
48516;SDS011;34310;51.904;4.256;2023-08-21T09:12:15;4.40;;;1.67;;
48516;SDS011;34310;51.904;4.256;2023-08-21T09:14:43;5.10;;;1.63;;
48516;SDS011;34310;51.904;4.256;2023-08-21T09:17:10;6.10;;;1.52;;
48516;SDS011;34310;51.904;4.256;2023-08-21T09:19:36;5.07;;;1.55;;
48516;SDS011;34310;51.904;4.256;2023-08-21T09:24:41;8.32;;;2.28;;
48516;SDS011;34310;51.904;4.256;2023-08-21T09:27:26;5.93;;;1.63;;
48516;SDS011;34310;51.904;4.256;2023-08-21T09:29:53;7.90;;;1.48;;
48516;SDS011;34310;51.904;4.256;2023-08-21T09:32:19;4.57;;;1.60;;
48516;SDS011;34310;51.904;4.256;2023-08-21T09:34:46;7.70;;;2.00;;
48516;SDS011;34310;51.904;4.256;2023-08-21T09:37:12;5.22;;;1.73;;
48516;SDS011;34310;51.904;4.256;2023-08-21T09:39:39;8.15;;;2.08;;
48516;SDS011;34310;51.904;4.256;2023-08-21T09:42:06;5.35;;;1.75;;
48516;SDS011;34310;51.904;4.256;2023-08-21T09:44:39;3.70;;;1.50;;
48516;SDS011;34310;51.904;4.256;2023-08-21T09:47:12;6.50;;;1.63;;
48516;SDS011;34310;51.904;4.256;2023-08-21T09:49:39;6.90;;;1.60;;
48516;SDS011;34310;51.904;4.256;2023-08-21T09:52:06;5.80;;;1.27;;
48516;SDS011;34310;51.904;4.256;2023-08-21T09:54:34;7.78;;;1.25;;
48516;SDS011;34310;51.904;4.256;2023-08-21T09:57:01;2.72;;;1.20;;
48516;SDS011;34310;51.904;4.256;2023-08-21T09:59:29;3.28;;;1.08;;
48516;SDS011;34310;51.904;4.256;2023-08-21T10:01:59;4.28;;;1.30;;
48516;SDS011;34310;51.904;4.256;2023-08-21T10:04:27;3.63;;;1.70;;
48516;SDS011;34310;51.904;4.256;2023-08-21T10:06:55;2.10;;;1.20;;
48516;SDS011;34310;51.904;4.256;2023-08-21T10:09:23;7.00;;;1.40;;
48516;SDS011;34310;51.904;4.256;2023-08-21T10:11:50;5.00;;;1.30;;
48516;SDS011;34310;51.904;4.256;2023-08-21T10:14:20;3.65;;;1.23;;
48516;SDS011;34310;51.904;4.256;2023-08-21T10:16:48;5.97;;;1.45;;
48516;SDS011;34310;51.904;4.256;2023-08-21T10:19:17;4.82;;;1.10;;
48516;SDS011;34310;51.904;4.256;2023-08-21T10:21:46;4.07;;;1.27;;
48516;SDS011;34310;51.904;4.256;2023-08-21T10:24:14;3.83;;;1.08;;
48516;SDS011;34310;51.904;4.256;2023-08-21T10:26:52;4.68;;;1.20;;
48516;SDS011;34310;51.904;4.256;2023-08-21T10:29:19;7.35;;;1.30;;
48516;SDS011;34310;51.904;4.256;2023-08-21T10:31:45;4.93;;;1.35;;
48516;SDS011;34310;51.904;4.256;2023-08-21T10:34:12;3.05;;;1.27;;
48516;SDS011;34310;51.904;4.256;2023-08-21T10:39:13;5.75;;;1.30;;
48516;SDS011;34310;51.904;4.256;2023-08-21T10:42:05;2.17;;;0.90;;
48516;SDS011;34310;51.904;4.256;2023-08-21T10:47:13;4.70;;;1.10;;
48516;SDS011;34310;51.904;4.256;2023-08-21T10:49:40;4.32;;;1.20;;
48516;SDS011;34310;51.904;4.256;2023-08-21T10:52:07;3.25;;;1.08;;
48516;SDS011;34310;51.904;4.256;2023-08-21T10:54:44;3.45;;;1.13;;
48516;SDS011;34310;51.904;4.256;2023-08-21T10:57:14;9.63;;;1.35;;
48516;SDS011;34310;51.904;4.256;2023-08-21T11:02:17;3.92;;;1.08;;
48516;SDS011;34310;51.904;4.256;2023-08-21T11:04:44;4.35;;;1.05;;
48516;SDS011;34310;51.904;4.256;2023-08-21T11:07:11;3.38;;;1.10;;
48516;SDS011;34310;51.904;4.256;2023-08-21T11:09:38;4.55;;;1.00;;
48516;SDS011;34310;51.904;4.256;2023-08-21T11:12:08;3.65;;;1.00;;
48516;SDS011;34310;51.904;4.256;2023-08-21T11:14:35;6.45;;;1.30;;
48516;SDS011;34310;51.904;4.256;2023-08-21T11:17:03;7.28;;;1.20;;
48516;SDS011;34310;51.904;4.256;2023-08-21T11:19:30;3.03;;;0.90;;
48516;SDS011;34310;51.904;4.256;2023-08-21T11:21:58;3.97;;;1.00;;
48516;SDS011;34310;51.904;4.256;2023-08-21T11:27:04;2.80;;;0.80;;
48516;SDS011;34310;51.904;4.256;2023-08-21T11:29:41;5.28;;;1.17;;
48516;SDS011;34310;51.904;4.256;2023-08-21T11:32:09;6.03;;;0.90;;
48516;SDS011;34310;51.904;4.256;2023-08-21T11:34:36;2.22;;;0.80;;
48516;SDS011;34310;51.904;4.256;2023-08-21T11:37:03;3.00;;;0.80;;
48516;SDS011;34310;51.904;4.256;2023-08-21T11:39:41;1.83;;;0.73;;
48516;SDS011;34310;51.904;4.256;2023-08-21T11:42:12;2.75;;;0.80;;
48516;SDS011;34310;51.904;4.256;2023-08-21T11:44:46;3.60;;;0.90;;
48516;SDS011;34310;51.904;4.256;2023-08-21T11:47:16;4.82;;;1.15;;
48516;SDS011;34310;51.904;4.256;2023-08-21T11:49:45;3.75;;;0.90;;
48516;SDS011;34310;51.904;4.256;2023-08-21T11:52:12;2.50;;;1.02;;
48516;SDS011;34310;51.904;4.256;2023-08-21T11:54:40;2.95;;;1.05;;
48516;SDS011;34310;51.904;4.256;2023-08-21T11:57:08;3.50;;;1.10;;
48516;SDS011;34310;51.904;4.256;2023-08-21T11:59:35;2.72;;;1.00;;
48516;SDS011;34310;51.904;4.256;2023-08-21T12:02:07;5.90;;;1.10;;
48516;SDS011;34310;51.904;4.256;2023-08-21T12:04:40;3.78;;;1.00;;
48516;SDS011;34310;51.904;4.256;2023-08-21T12:07:09;4.25;;;1.00;;
48516;SDS011;34310;51.904;4.256;2023-08-21T12:09:36;2.92;;;0.73;;
48516;SDS011;34310;51.904;4.256;2023-08-21T12:12:03;3.72;;;1.15;;
48516;SDS011;34310;51.904;4.256;2023-08-21T12:14:30;2.17;;;0.90;;
48516;SDS011;34310;51.904;4.256;2023-08-21T12:16:56;3.75;;;0.95;;
48516;SDS011;34310;51.904;4.256;2023-08-21T12:19:23;4.13;;;1.23;;
48516;SDS011;34310;51.904;4.256;2023-08-21T12:21:50;3.38;;;0.95;;
48516;SDS011;34310;51.904;4.256;2023-08-21T12:24:17;3.45;;;0.95;;
48516;SDS011;34310;51.904;4.256;2023-08-21T12:26:43;4.13;;;0.80;;
48516;SDS011;34310;51.904;4.256;2023-08-21T12:29:16;4.85;;;0.90;;
48516;SDS011;34310;51.904;4.256;2023-08-21T12:31:43;3.13;;;0.93;;
48516;SDS011;34310;51.904;4.256;2023-08-21T12:34:09;5.13;;;1.00;;
48516;SDS011;34310;51.904;4.256;2023-08-21T12:36:36;1.90;;;0.70;;
48516;SDS011;34310;51.904;4.256;2023-08-21T12:39:03;4.03;;;1.08;;
48516;SDS011;34310;51.904;4.256;2023-08-21T12:41:30;2.38;;;1.08;;
48516;SDS011;34310;51.904;4.256;2023-08-21T12:43:57;1.73;;;0.75;;
48516;SDS011;34310;51.904;4.256;2023-08-21T12:46:24;1.60;;;0.70;;
48516;SDS011;34310;51.904;4.256;2023-08-21T12:48:50;1.70;;;0.80;;
48516;SDS011;34310;51.904;4.256;2023-08-21T12:51:17;4.70;;;0.73;;
48516;SDS011;34310;51.904;4.256;2023-08-21T12:53:43;2.45;;;0.82;;
48516;SDS011;34310;51.904;4.256;2023-08-21T12:56:10;2.97;;;0.90;;
48516;SDS011;34310;51.904;4.256;2023-08-21T12:58:36;4.68;;;0.90;;
48516;SDS011;34310;51.904;4.256;2023-08-21T13:01:03;5.13;;;0.93;;
48516;SDS011;34310;51.904;4.256;2023-08-21T13:03:29;2.80;;;0.98;;
48516;SDS011;34310;51.904;4.256;2023-08-21T13:05:56;2.47;;;0.60;;
48516;SDS011;34310;51.904;4.256;2023-08-21T13:08:23;1.88;;;0.80;;
48516;SDS011;34310;51.904;4.256;2023-08-21T13:10:49;3.10;;;0.80;;
48516;SDS011;34310;51.904;4.256;2023-08-21T13:13:16;1.60;;;0.82;;
48516;SDS011;34310;51.904;4.256;2023-08-21T13:15:42;2.17;;;0.90;;
48516;SDS011;34310;51.904;4.256;2023-08-21T13:18:09;2.75;;;0.85;;
48516;SDS011;34310;51.904;4.256;2023-08-21T13:20:35;2.75;;;1.02;;
48516;SDS011;34310;51.904;4.256;2023-08-21T13:23:02;1.75;;;0.80;;
48516;SDS011;34310;51.904;4.256;2023-08-21T13:25:28;3.50;;;0.90;;
48516;SDS011;34310;51.904;4.256;2023-08-21T13:27:55;4.93;;;1.00;;
48516;SDS011;34310;51.904;4.256;2023-08-21T13:30:21;2.78;;;0.90;;
48516;SDS011;34310;51.904;4.256;2023-08-21T13:32:48;4.45;;;1.00;;
48516;SDS011;34310;51.904;4.256;2023-08-21T13:35:15;3.15;;;1.00;;
48516;SDS011;34310;51.904;4.256;2023-08-21T13:37:42;2.55;;;0.88;;
48516;SDS011;34310;51.904;4.256;2023-08-21T13:40:08;2.13;;;0.80;;
48516;SDS011;34310;51.904;4.256;2023-08-21T13:42:39;3.03;;;0.93;;
48516;SDS011;34310;51.904;4.256;2023-08-21T13:45:10;4.85;;;1.05;;
48516;SDS011;34310;51.904;4.256;2023-08-21T13:47:41;2.42;;;0.90;;
48516;SDS011;34310;51.904;4.256;2023-08-21T13:50:10;3.35;;;0.88;;
48516;SDS011;34310;51.904;4.256;2023-08-21T13:52:37;4.75;;;1.10;;
48516;SDS011;34310;51.904;4.256;2023-08-21T13:55:03;2.38;;;0.90;;
48516;SDS011;34310;51.904;4.256;2023-08-21T13:57:30;4.60;;;0.85;;
48516;SDS011;34310;51.904;4.256;2023-08-21T13:59:56;3.40;;;1.10;;
48516;SDS011;34310;51.904;4.256;2023-08-21T14:02:23;3.10;;;1.00;;
48516;SDS011;34310;51.904;4.256;2023-08-21T14:04:49;3.05;;;0.95;;
48516;SDS011;34310;51.904;4.256;2023-08-21T14:07:16;3.00;;;0.90;;
48516;SDS011;34310;51.904;4.256;2023-08-21T14:09:43;3.58;;;0.93;;
48516;SDS011;34310;51.904;4.256;2023-08-21T14:12:09;2.10;;;0.80;;
48516;SDS011;34310;51.904;4.256;2023-08-21T14:14:36;2.20;;;0.90;;
48516;SDS011;34310;51.904;4.256;2023-08-21T14:17:02;5.85;;;0.95;;
48516;SDS011;34310;51.904;4.256;2023-08-21T14:19:29;3.80;;;1.25;;
48516;SDS011;34310;51.904;4.256;2023-08-21T14:21:59;4.15;;;1.20;;
48516;SDS011;34310;51.904;4.256;2023-08-21T14:24:26;4.25;;;1.13;;
48516;SDS011;34310;51.904;4.256;2023-08-21T14:26:53;2.90;;;0.90;;
48516;SDS011;34310;51.904;4.256;2023-08-21T14:29:19;5.38;;;0.93;;
48516;SDS011;34310;51.904;4.256;2023-08-21T14:31:46;2.15;;;1.25;;
48516;SDS011;34310;51.904;4.256;2023-08-21T14:34:13;2.17;;;1.08;;
48516;SDS011;34310;51.904;4.256;2023-08-21T14:36:39;7.65;;;1.05;;
48516;SDS011;34310;51.904;4.256;2023-08-21T14:39:06;3.38;;;1.00;;
48516;SDS011;34310;51.904;4.256;2023-08-21T14:41:33;3.75;;;0.98;;
48516;SDS011;34310;51.904;4.256;2023-08-21T14:44:00;2.72;;;1.20;;
48516;SDS011;34310;51.904;4.256;2023-08-21T14:46:26;1.63;;;1.00;;
48516;SDS011;34310;51.904;4.256;2023-08-21T14:49:07;1.23;;;0.93;;
48516;SDS011;34310;51.904;4.256;2023-08-21T14:51:34;1.85;;;1.10;;
48516;SDS011;34310;51.904;4.256;2023-08-21T14:54:00;3.97;;;1.30;;
48516;SDS011;34310;51.904;4.256;2023-08-21T14:56:27;5.68;;;1.65;;
48516;SDS011;34310;51.904;4.256;2023-08-21T14:58:53;2.97;;;1.50;;
48516;SDS011;34310;51.904;4.256;2023-08-21T15:01:20;3.80;;;1.40;;
48516;SDS011;34310;51.904;4.256;2023-08-21T15:03:46;3.53;;;1.58;;